Airfield :
LOGIN :

Register | Disclaimer

   EN    FR    IT 

 










Legend :    VFR   Marginal VFR   IFR   Intensive IFR   Very Intensive IFR
Visi :
Ceiling :
>= 8 km
>= 3000ft
5 to 8 km
1000 to 3000 ft
1500m to 5 km
500 to 1000 ft
800 to 1500m
200 to 500 ft
< 800m
< 200 ft
Symbols :   Thunderstorms  Fog  Heavy snow  Heavy precipitations  Wind > 20 kt
SIGMETs :     Misc.  Thunderstorms  Icing  Turbulence  Mountain Waves  Volcanic Ashes







- Airport Elevation : 628 ft
- IATA code : CMR
- Download approach charts


LFGA - Colmar-Houssen

CURRENT METAR :
  • 171330Z AUTO 36007KT 320V060 CAVOK 27/13 Q1017

EXPIRED METARs :
  • 171300Z AUTO 36010KT CAVOK 26/13 Q1017
  • 171230Z AUTO 36007KT 270V060 CAVOK 26/13 Q1018
  • 171200Z AUTO 02007KT 350V090 CAVOK 26/14 Q1018
  • 171130Z AUTO 03008KT 340V070 CAVOK 25/13 Q1018
  • 171100Z AUTO 04006KT 320V100 CAVOK 25/13 Q1018
  • 171030Z AUTO 01007KT 320V080 CAVOK 25/13 Q1019

TAF N/A
No reported NOTAMs for that airfield.



MET'MAP, your aeronautical weather chart ! - Copyright ORBIFLY December 2007 - Disclaimer

ORBIFLY MET'MAP TEAM :

Programming & Development : Alexandra Zaïnal
Concept & Development : Baudouin d'Aumeries
Co-Development & Prog : Marc-Olivier Méhu
Technical & hardware support : Manuel Goepfert

Contact : metmap@orbifly.com




SOURCES & CREDITS :

   NOAA